Time;durP1;ratioP1;P1;durP2;ratioP2;P2;SDS_P1;SDS_P2;PMS_P1;PMS_P2;Temp;Humidity;BMP_temperature;BMP_pressure;BME280_temperature;BME280_humidity;BME280_pressure;Samples;Min_cycle;Max_cycle;Signal;HPM_P1;HPM_P2
2021/08/03 00:01:04;;;;;;;16.55;10.60;;;13.50;89.20;;;;;;5053486;28;20092;-36
2021/08/03 00:04:11;;;;;;;15.25;9.73;;;13.50;89.10;;;;;;5053588;28;20020;-36
2021/08/03 00:06:45;;;;;;;11.27;8.82;;;13.40;89.30;;;;;;5052398;28;20067;-36
2021/08/03 00:09:11;;;;;;;13.10;8.15;;;13.40;89.30;;;;;;5053676;28;20059;-36
2021/08/03 00:11:42;;;;;;;13.75;8.85;;;13.30;89.20;;;;;;5053566;28;20025;-36
2021/08/03 00:14:08;;;;;;;11.02;8.13;;;13.30;89.20;;;;;;5053579;28;20359;-36
2021/08/03 00:16:39;;;;;;;11.23;8.85;;;13.30;89.20;;;;;;5053219;28;20103;-36
2021/08/03 00:19:05;;;;;;;16.85;8.95;;;13.20;89.30;;;;;;5053358;28;20036;-36
2021/08/03 00:21:32;;;;;;;12.02;8.48;;;13.20;89.60;;;;;;5035770;28;20540;-36
2021/08/03 00:23:58;;;;;;;13.90;9.40;;;13.10;89.20;;;;;;5051926;28;20112;-36
2021/08/03 00:26:24;;;;;;;15.70;9.95;;;13.10;89.70;;;;;;5053121;28;20061;-36
2021/08/03 00:28:50;;;;;;;10.77;9.02;;;13.00;89.80;;;;;;5053001;28;20422;-36
2021/08/03 00:31:18;;;;;;;12.30;8.75;;;13.10;90.10;;;;;;5053296;28;20501;-36
2021/08/03 00:33:46;;;;;;;16.17;8.93;;;13.10;90.00;;;;;;5053036;28;20055;-36
2021/08/03 00:36:13;;;;;;;14.30;8.85;;;13.10;89.90;;;;;;5052890;28;20025;-36
2021/08/03 00:38:39;;;;;;;11.35;8.18;;;13.10;89.90;;;;;;5053038;28;20381;-36
2021/08/03 00:41:09;;;;;;;14.13;8.25;;;13.00;89.90;;;;;;5052814;28;20025;-36
2021/08/03 00:43:35;;;;;;;11.82;7.78;;;12.90;89.80;;;;;;5051304;28;20025;-36
2021/08/03 00:46:00;;;;;;;12.07;8.85;;;12.90;89.80;;;;;;5052801;28;20424;-36
2021/08/03 00:48:26;;;;;;;12.57;8.13;;;12.80;89.90;;;;;;5052771;28;20435;-36
2021/08/03 00:50:52;;;;;;;18.27;9.13;;;12.80;90.00;;;;;;5053211;28;20077;-37
2021/08/03 00:53:17;;;;;;;21.20;9.10;;;12.90;90.10;;;;;;5052706;28;20025;-37
2021/08/03 00:55:43;;;;;;;14.07;9.70;;;12.80;89.90;;;;;;5052937;28;20021;-37
2021/08/03 00:58:11;;;;;;;13.48;7.88;;;12.80;89.90;;;;;;5052805;28;20557;-36
2021/08/03 01:00:37;;;;;;;10.95;7.95;;;12.80;90.00;;;;;;5052441;28;20112;-36
2021/08/03 01:03:03;;;;;;;14.18;8.98;;;12.80;90.00;;;;;;5052607;28;20053;-36
2021/08/03 01:05:37;;;;;;;13.15;8.57;;;12.80;90.10;;;;;;5052636;28;20060;-40
2021/08/03 01:08:20;;;;;;;13.20;8.10;;;12.80;90.20;;;;;;5051731;28;20036;-37
2021/08/03 01:11:03;;;;;;;15.68;7.55;;;12.80;90.00;;;;;;5052334;28;20082;-36
2021/08/03 01:14:22;;;;;;;14.52;7.47;;;12.80;89.90;;;;;;5052816;28;20029;-37
2021/08/03 01:16:55;;;;;;;10.40;7.35;;;12.70;89.80;;;;;;5050144;28;20112;-36
2021/08/03 01:19:51;;;;;;;12.75;7.97;;;12.70;89.80;;;;;;5051820;28;20099;-37
2021/08/03 01:22:34;;;;;;;16.55;8.60;;;12.60;89.60;;;;;;5052252;28;20531;-37
2021/08/03 01:25:15;;;;;;;13.43;7.78;;;12.60;89.60;;;;;;5052215;28;20023;-36
2021/08/03 01:28:02;;;;;;;17.90;8.60;;;12.50;89.70;;;;;;5052473;28;20051;-37
2021/08/03 01:30:30;;;;;;;10.77;7.25;;;12.50;90.00;;;;;;5052197;28;20045;-37
2021/08/03 01:32:57;;;;;;;10.57;7.95;;;12.50;90.00;;;;;;5052197;28;20388;-36
2021/08/03 01:35:23;;;;;;;12.68;8.23;;;12.50;90.10;;;;;;5052209;28;20357;-36
2021/08/03 01:37:50;;;;;;;13.90;8.23;;;12.60;90.00;;;;;;5052200;28;20035;-36
2021/08/03 01:40:16;;;;;;;17.05;8.52;;;12.70;89.80;;;;;;5050963;28;20028;-36
2021/08/03 01:42:43;;;;;;;12.32;8.32;;;12.60;89.70;;;;;;5052447;28;20418;-36
2021/08/03 01:45:12;;;;;;;12.85;7.72;;;12.60;89.40;;;;;;5052493;28;20032;-36
2021/08/03 01:47:37;;;;;;;9.70;7.65;;;12.50;89.60;;;;;;5052204;28;20424;-37
2021/08/03 01:50:05;;;;;;;12.27;7.93;;;12.40;89.40;;;;;;5052187;28;20029;-36
2021/08/03 01:52:33;;;;;;;17.88;9.32;;;12.40;89.60;;;;;;5052141;28;20032;-36
2021/08/03 01:55:00;;;;;;;13.25;8.43;;;12.40;89.50;;;;;;5055702;28;20068;-37
2021/08/03 01:57:27;;;;;;;10.82;7.72;;;12.40;89.40;;;;;;5056196;28;20021;-37
2021/08/03 01:59:54;;;;;;;13.45;9.10;;;12.40;89.60;;;;;;5055858;28;20036;-37
2021/08/03 02:02:20;;;;;;;11.10;6.90;;;12.40;89.60;;;;;;5055872;28;20376;-46
2021/08/03 02:04:51;;;;;;;13.93;7.60;;;12.30;89.60;;;;;;5055706;28;20414;-37
2021/08/03 02:07:20;;;;;;;9.55;7.22;;;12.30;89.70;;;;;;5055639;28;20082;-48
2021/08/03 02:09:46;;;;;;;12.02;7.65;;;12.30;89.60;;;;;;5055953;28;20037;-48
2021/08/03 02:12:12;;;;;;;11.27;8.00;;;12.30;89.50;;;;;;5055598;28;20020;-48
2021/08/03 02:14:45;;;;;;;13.13;8.10;;;12.30;89.80;;;;;;5055888;28;20487;-48
2021/08/03 02:17:23;;;;;;;13.43;8.60;;;12.30;90.00;;;;;;5055466;28;20029;-50
2021/08/03 02:19:49;;;;;;;11.55;8.02;;;12.30;89.90;;;;;;5054141;28;20036;-48
2021/08/03 02:22:18;;;;;;;14.18;8.80;;;12.30;89.90;;;;;;5055454;28;20036;-48
2021/08/03 02:24:44;;;;;;;13.52;9.38;;;12.30;89.90;;;;;;5055662;28;20029;-48
2021/08/03 02:27:10;;;;;;;14.35;9.60;;;12.30;89.80;;;;;;5055388;28;20104;-48
2021/08/03 02:29:40;;;;;;;14.65;9.13;;;12.40;89.70;;;;;;5055328;28;20024;-47
2021/08/03 02:32:08;;;;;;;14.35;8.65;;;12.50;89.60;;;;;;5055137;28;20055;-51
2021/08/03 02:34:46;;;;;;;13.30;7.85;;;12.40;89.30;;;;;;5055163;28;20445;-48
2021/08/03 02:37:17;;;;;;;12.15;8.05;;;12.50;89.40;;;;;;5055370;28;20017;-49
2021/08/03 02:39:44;;;;;;;11.85;7.85;;;12.40;89.50;;;;;;5055182;28;20049;-49
2021/08/03 02:42:11;;;;;;;15.15;8.43;;;12.40;89.60;;;;;;5055128;28;20021;-48
2021/08/03 02:44:40;;;;;;;10.98;7.35;;;12.30;89.60;;;;;;5055288;28;20021;-49
2021/08/03 02:47:18;;;;;;;12.45;7.63;;;12.30;89.70;;;;;;5054964;28;20174;-47
2021/08/03 02:49:50;;;;;;;9.27;7.13;;;12.30;89.80;;;;;;5054940;28;20024;-48
2021/08/03 02:52:23;;;;;;;10.77;7.05;;;12.40;89.60;;;;;;5055132;28;20422;-48
2021/08/03 02:54:57;;;;;;;6.80;6.00;;;12.30;89.60;;;;;;5055107;28;20017;-50
2021/08/03 02:57:25;;;;;;;14.32;8.07;;;12.40;89.40;;;;;;5053556;28;20337;-49
2021/08/03 02:59:54;;;;;;;13.10;9.50;;;12.50;89.30;;;;;;5054957;28;20032;-49
2021/08/03 03:02:21;;;;;;;17.63;8.95;;;12.60;89.20;;;;;;5054790;28;20478;-47
2021/08/03 03:04:54;;;;;;;14.75;8.75;;;12.70;89.20;;;;;;5054075;28;20017;-53
2021/08/03 03:07:28;;;;;;;13.75;9.27;;;12.80;88.70;;;;;;5054670;28;20033;-51
2021/08/03 03:09:56;;;;;;;13.45;9.35;;;12.90;88.00;;;;;;5054806;28;20060;-53
2021/08/03 03:12:25;;;;;;;13.57;9.70;;;12.80;88.50;;;;;;5054587;28;20090;-52
2021/08/03 03:14:56;;;;;;;13.13;9.38;;;12.70;88.50;;;;;;5054663;28;20039;-50
2021/08/03 03:17:26;;;;;;;17.40;10.18;;;12.70;88.70;;;;;;5054767;28;20028;-49
2021/08/03 03:19:55;;;;;;;14.38;9.70;;;12.60;88.70;;;;;;5054549;28;20060;-49
2021/08/03 03:22:22;;;;;;;14.07;8.57;;;12.60;89.00;;;;;;5054299;28;20033;-47
2021/08/03 03:24:49;;;;;;;16.00;9.80;;;12.60;89.00;;;;;;5054229;28;20025;-49
2021/08/03 03:27:17;;;;;;;12.65;8.52;;;12.70;89.00;;;;;;5054489;28;20090;-47
2021/08/03 03:29:44;;;;;;;17.27;9.20;;;12.80;88.90;;;;;;5054075;28;20416;-45
2021/08/03 03:32:10;;;;;;;16.67;9.82;;;12.80;88.80;;;;;;5053869;28;20044;-46
2021/08/03 03:34:39;;;;;;;10.52;9.05;;;12.80;88.80;;;;;;5052650;28;20484;-47
2021/08/03 03:37:05;;;;;;;9.25;7.55;;;12.80;88.50;;;;;;5053849;28;20033;-48
2021/08/03 03:39:35;;;;;;;13.52;8.40;;;12.70;88.70;;;;;;5053877;28;20059;-47
2021/08/03 03:42:01;;;;;;;12.27;8.65;;;12.70;88.90;;;;;;5054213;28;20613;-47
2021/08/03 03:44:28;;;;;;;14.95;9.38;;;12.80;88.50;;;;;;5054146;28;20499;-47
2021/08/03 03:46:58;;;;;;;16.50;8.75;;;12.80;88.20;;;;;;5054074;28;20032;-47
2021/08/03 03:49:26;;;;;;;13.83;9.10;;;12.80;88.00;;;;;;5053906;28;20033;-47
2021/08/03 03:51:52;;;;;;;13.65;8.85;;;12.80;88.30;;;;;;5054241;28;20020;-48
2021/08/03 03:54:23;;;;;;;17.33;8.20;;;12.80;88.30;;;;;;5054302;28;20031;-50
2021/08/03 03:56:54;;;;;;;12.25;8.75;;;12.80;88.30;;;;;;5052763;28;20029;-48
2021/08/03 03:59:20;;;;;;;;;;;12.80;88.30;;;;;;5054466;28;20103;-46
2021/08/03 04:01:50;;;;;;;12.70;7.85;;;12.80;88.40;;;;;;5053782;28;19904;-48
2021/08/03 04:04:17;;;;;;;12.73;8.73;;;12.80;88.50;;;;;;5053563;28;20032;-47
2021/08/03 04:06:43;;;;;;;13.40;9.35;;;12.80;88.60;;;;;;5053379;28;20040;-48
2021/08/03 04:09:23;;;;;;;16.20;9.65;;;12.90;88.40;;;;;;5053620;28;20067;-48
2021/08/03 04:11:50;;;;;;;19.35;8.90;;;13.10;88.10;;;;;;5053327;28;20059;-48
2021/08/03 04:14:22;;;;;;;17.40;9.77;;;13.10;87.60;;;;;;5053197;28;20041;-47
2021/08/03 04:16:49;;;;;;;15.07;9.27;;;13.10;87.90;;;;;;5053489;28;20505;-47
2021/08/03 04:19:14;;;;;;;15.70;9.25;;;13.20;87.60;;;;;;5052985;28;20089;-48
2021/08/03 04:21:40;;;;;;;18.50;10.45;;;13.20;87.70;;;;;;5053076;28;20463;-49
2021/08/03 04:24:06;;;;;;;16.33;9.57;;;13.20;87.40;;;;;;5053615;28;20423;-47
2021/08/03 04:26:32;;;;;;;17.23;9.30;;;13.30;87.20;;;;;;5053287;28;20083;-50
2021/08/03 04:28:57;;;;;;;13.77;10.07;;;13.30;87.30;;;;;;5052932;28;20461;-49
2021/08/03 04:31:23;;;;;;;15.25;8.95;;;13.30;87.20;;;;;;5052889;28;20052;-50
2021/08/03 04:33:50;;;;;;;14.15;10.05;;;13.30;87.10;;;;;;5052970;28;20465;-49
2021/08/03 04:36:16;;;;;;;19.83;11.27;;;13.30;86.80;;;;;;5052754;28;20029;-48
2021/08/03 04:38:42;;;;;;;18.13;10.10;;;13.30;87.30;;;;;;5051461;28;20036;-49
2021/08/03 04:41:08;;;;;;;20.02;10.23;;;13.30;86.90;;;;;;5053272;28;20185;-47
2021/08/03 04:43:33;;;;;;;16.50;9.98;;;13.30;86.70;;;;;;5053019;28;20029;-48
2021/08/03 04:45:59;;;;;;;12.50;9.07;;;13.30;87.10;;;;;;5053118;28;20365;-46
2021/08/03 04:48:24;;;;;;;13.80;10.98;;;13.30;87.50;;;;;;5052898;28;20359;-47
2021/08/03 04:50:50;;;;;;;14.10;9.68;;;13.30;87.80;;;;;;5052838;28;20032;-47
2021/08/03 04:53:16;;;;;;;12.88;9.65;;;13.30;87.20;;;;;;5051362;28;20036;-47
2021/08/03 04:55:41;;;;;;;17.27;10.27;;;13.30;87.20;;;;;;5052540;28;20389;-48
2021/08/03 04:58:07;;;;;;;15.02;9.80;;;13.30;87.10;;;;;;5053110;28;20032;-48
2021/08/03 05:00:32;;;;;;;14.27;10.55;;;13.30;87.20;;;;;;5051238;28;20025;-50
2021/08/03 05:02:58;;;;;;;14.25;9.38;;;13.30;87.50;;;;;;5053095;28;20025;-49
2021/08/03 05:05:24;;;;;;;18.13;10.38;;;13.30;87.60;;;;;;5051344;28;20473;-47
2021/08/03 05:07:58;;;;;;;18.23;10.57;;;13.30;87.70;;;;;;5052825;28;20044;-48
2021/08/03 05:10:25;;;;;;;17.70;10.50;;;13.30;87.50;;;;;;5052521;28;20028;-49
2021/08/03 05:12:50;;;;;;;20.15;10.90;;;13.40;87.30;;;;;;5052514;28;20036;-49
2021/08/03 05:15:16;;;;;;;16.52;10.70;;;13.40;87.60;;;;;;5052420;28;20025;-48
2021/08/03 05:17:42;;;;;;;19.23;10.98;;;13.50;87.90;;;;;;5052323;28;20083;-47
2021/08/03 05:20:08;;;;;;;15.70;9.77;;;13.50;87.60;;;;;;5052394;28;20459;-49
2021/08/03 05:22:34;;;;;;;17.83;10.85;;;13.50;87.60;;;;;;5051053;28;20032;-47
2021/08/03 05:24:59;;;;;;;16.50;10.27;;;13.30;88.30;;;;;;5052646;28;20426;-48
2021/08/03 05:27:26;;;;;;;17.90;11.30;;;13.40;88.00;;;;;;5052356;28;20029;-48
2021/08/03 05:29:51;;;;;;;16.60;9.93;;;13.40;88.10;;;;;;5055691;28;20043;-47
2021/08/03 05:32:17;;;;;;;17.38;11.45;;;13.40;87.80;;;;;;5056083;28;20056;-46
2021/08/03 05:34:43;;;;;;;15.60;9.50;;;13.40;88.00;;;;;;5056166;28;20448;-47
2021/08/03 05:37:08;;;;;;;13.70;9.57;;;13.30;88.50;;;;;;5054791;28;20036;-47
2021/08/03 05:39:34;;;;;;;15.48;10.27;;;13.40;88.50;;;;;;5056026;28;20477;-47
2021/08/03 05:42:01;;;;;;;14.15;10.77;;;13.30;88.40;;;;;;5056238;28;20025;-46
2021/08/03 05:44:27;;;;;;;13.18;9.48;;;13.30;88.80;;;;;;5056190;28;20028;-47
2021/08/03 05:46:53;;;;;;;15.85;9.90;;;13.30;89.00;;;;;;5055827;28;20021;-47
2021/08/03 05:49:18;;;;;;;20.80;10.52;;;13.40;88.80;;;;;;5056225;28;20040;-48
2021/08/03 05:51:44;;;;;;;18.30;13.30;;;13.30;88.70;;;;;;5055981;28;20112;-50
2021/08/03 05:54:10;;;;;;;20.27;11.18;;;13.50;89.00;;;;;;5055997;28;20339;-47
2021/08/03 05:56:37;;;;;;;18.05;11.45;;;13.50;89.00;;;;;;5055723;28;20083;-48
2021/08/03 05:59:03;;;;;;;16.60;10.57;;;13.60;88.90;;;;;;5055566;28;20032;-47
2021/08/03 06:01:29;;;;;;;16.42;11.07;;;13.70;88.60;;;;;;5055820;28;20021;-47
2021/08/03 06:03:55;;;;;;;15.85;10.70;;;14.00;88.20;;;;;;5055933;28;20029;-49
2021/08/03 06:06:21;;;;;;;17.35;10.90;;;14.10;87.80;;;;;;5055411;28;20021;-47
2021/08/03 06:08:47;;;;;;;13.63;10.73;;;14.10;87.40;;;;;;5055838;28;20017;-48
2021/08/03 06:11:20;;;;;;;13.20;10.10;;;14.30;86.70;;;;;;5055493;28;20032;-47
2021/08/03 06:13:48;;;;;;;18.77;10.18;;;14.30;86.70;;;;;;5053891;28;20021;-47
2021/08/03 06:16:20;;;;;;;16.70;9.13;;;14.40;86.30;;;;;;5055448;28;20081;-50
2021/08/03 06:18:47;;;;;;;14.05;9.98;;;14.40;85.90;;;;;;5053426;28;20021;-50
2021/08/03 06:21:14;;;;;;;15.68;8.98;;;14.50;85.70;;;;;;5054591;28;20021;-48
2021/08/03 06:23:43;;;;;;;13.82;9.65;;;14.80;84.70;;;;;;5055258;28;20334;-48
2021/08/03 06:26:09;;;;;;;11.00;8.93;;;14.80;84.80;;;;;;5055445;28;20381;-48
2021/08/03 06:28:36;;;;;;;13.57;9.75;;;14.80;84.60;;;;;;5055000;28;20032;-51
2021/08/03 06:31:03;;;;;;;12.32;9.70;;;14.90;84.20;;;;;;5054742;28;20061;-48
2021/08/03 06:33:30;;;;;;;19.88;10.23;;;15.10;84.00;;;;;;5054056;28;20025;-48
2021/08/03 06:35:56;;;;;;;18.25;9.77;;;15.20;84.40;;;;;;5053493;28;20032;-48
2021/08/03 06:38:23;;;;;;;14.18;8.63;;;15.60;82.70;;;;;;5054766;28;20036;-49
2021/08/03 06:40:57;;;;;;;15.30;9.00;;;15.80;81.50;;;;;;5051904;28;20017;-48
2021/08/03 06:43:25;;;;;;;15.63;10.38;;;16.10;80.40;;;;;;5055025;28;20530;-48
2021/08/03 06:46:06;;;;;;;13.73;10.98;;;15.90;80.80;;;;;;5053223;28;20393;-47
2021/08/03 06:48:32;;;;;;;;;;;16.20;80.60;;;;;;5055069;28;20479;-48
2021/08/03 06:51:10;;;;;;;11.75;8.90;;;16.50;79.30;;;;;;5054464;28;19904;-48
2021/08/03 06:53:39;;;;;;;14.27;9.50;;;16.30;79.90;;;;;;5053126;28;20025;-47
2021/08/03 06:56:05;;;;;;;12.70;8.32;;;16.50;80.10;;;;;;5053336;28;20067;-47
2021/08/03 06:58:46;;;;;;;15.32;8.15;;;16.60;78.10;;;;;;5054204;28;20104;-47
2021/08/03 07:01:43;;;;;;;11.63;8.05;;;16.60;77.80;;;;;;5054449;28;20029;-52
2021/08/03 07:04:12;;;;;;;18.05;9.00;;;16.70;77.60;;;;;;5053785;28;20481;-50
2021/08/03 07:06:43;;;;;;;13.43;8.80;;;16.60;77.90;;;;;;5054130;28;20017;-49
2021/08/03 07:09:10;;;;;;;16.90;8.95;;;16.50;77.90;;;;;;5054507;28;20029;-49
2021/08/03 07:11:37;;;;;;;14.98;9.70;;;16.60;77.50;;;;;;5054393;28;20051;-52
2021/08/03 07:14:04;;;;;;;16.60;9.98;;;16.80;77.10;;;;;;5054656;28;20364;-49
2021/08/03 07:16:34;;;;;;;25.30;11.15;;;16.90;77.10;;;;;;5055711;28;20025;-52
2021/08/03 07:19:02;;;;;;;19.50;10.32;;;17.10;76.40;;;;;;5054163;28;20033;-51
2021/08/03 07:21:27;;;;;;;14.57;10.45;;;17.30;75.60;;;;;;5052766;28;20029;-47
2021/08/03 07:23:56;;;;;;;23.20;11.15;;;17.30;75.70;;;;;;5056155;28;20025;-48
2021/08/03 07:26:25;;;;;;;15.73;10.40;;;17.40;74.90;;;;;;5054585;28;20032;-48
2021/08/03 07:28:51;;;;;;;18.38;10.98;;;17.60;74.40;;;;;;5055764;28;20044;-48
2021/08/03 07:31:18;;;;;;;19.55;11.15;;;17.30;75.30;;;;;;5054029;28;20457;-52
2021/08/03 07:33:44;;;;;;;17.65;10.93;;;17.30;77.30;;;;;;5052509;28;20032;-50
2021/08/03 07:36:10;;;;;;;22.00;12.32;;;17.50;75.50;;;;;;5053625;28;20028;-48
2021/08/03 07:38:35;;;;;;;23.50;12.63;;;17.50;74.50;;;;;;5052382;28;20033;-46
2021/08/03 07:41:01;;;;;;;17.60;11.93;;;17.40;75.90;;;;;;5054236;28;20052;-50
2021/08/03 07:43:28;;;;;;;17.75;10.52;;;17.30;75.90;;;;;;5054092;28;20013;-51
2021/08/03 07:45:55;;;;;;;21.10;10.85;;;17.60;74.90;;;;;;5052132;28;20025;-50
2021/08/03 07:48:20;;;;;;;21.27;12.93;;;17.40;74.90;;;;;;5052181;28;20095;-50
2021/08/03 07:50:46;;;;;;;14.60;10.70;;;17.70;74.80;;;;;;5051341;28;20025;-49
2021/08/03 07:53:13;;;;;;;21.45;12.70;;;17.80;73.90;;;;;;5051378;28;20507;-50
2021/08/03 07:55:39;;;;;;;21.15;11.00;;;18.00;73.10;;;;;;5052692;28;20025;-50
2021/08/03 07:58:05;;;;;;;23.13;10.45;;;17.90;73.60;;;;;;5052930;28;20032;-52
2021/08/03 08:00:32;;;;;;;23.50;11.52;;;17.80;73.70;;;;;;5051697;28;20052;-49
2021/08/03 08:02:58;;;;;;;19.45;12.02;;;17.70;74.60;;;;;;5053120;28;20033;-49
2021/08/03 08:05:24;;;;;;;18.65;11.57;;;17.80;73.90;;;;;;5053139;28;20013;-47
2021/08/03 08:07:49;;;;;;;24.30;11.60;;;17.80;73.40;;;;;;5051676;28;20449;-48
2021/08/03 08:10:15;;;;;;;24.90;11.95;;;17.50;73.40;;;;;;5053393;28;20036;-52
2021/08/03 08:12:41;;;;;;;19.67;10.80;;;17.50;73.30;;;;;;5053152;28;20029;-51
2021/08/03 08:15:07;;;;;;;27.05;11.85;;;17.30;73.60;;;;;;5051890;28;20020;-49
2021/08/03 08:17:33;;;;;;;15.68;10.50;;;17.30;74.80;;;;;;5051222;28;20092;-49
2021/08/03 08:19:58;;;;;;;23.58;11.88;;;17.30;74.60;;;;;;5052984;28;20056;-49
2021/08/03 08:22:24;;;;;;;20.80;10.27;;;17.40;74.80;;;;;;5051251;28;20107;-47
2021/08/03 08:24:50;;;;;;;18.40;9.70;;;17.50;74.00;;;;;;5052823;28;20098;-52
2021/08/03 08:27:15;;;;;;;16.30;8.43;;;17.70;72.80;;;;;;5052759;28;20021;-49
2021/08/03 08:29:41;;;;;;;13.20;8.95;;;17.70;71.90;;;;;;5052498;28;20124;-51
2021/08/03 08:32:07;;;;;;;13.55;7.88;;;17.80;72.10;;;;;;5052430;28;20546;-51
2021/08/03 08:34:33;;;;;;;17.63;9.23;;;18.30;71.10;;;;;;5050877;28;20108;-50
2021/08/03 08:36:59;;;;;;;13.98;7.82;;;18.50;71.00;;;;;;5052360;28;20049;-48
2021/08/03 08:39:24;;;;;;;10.70;6.32;;;18.80;69.10;;;;;;5053265;28;20334;-48
2021/08/03 08:41:50;;;;;;;11.27;6.32;;;19.10;67.50;;;;;;5052958;28;20029;-49
2021/08/03 08:44:19;;;;;;;13.55;7.53;;;19.70;66.20;;;;;;5052544;28;20416;-50
2021/08/03 08:46:45;;;;;;;17.27;6.88;;;20.40;62.70;;;;;;5050591;28;20025;-50
2021/08/03 08:49:14;;;;;;;10.82;5.78;;;20.70;61.80;;;;;;5052620;28;20100;-53
2021/08/03 08:51:41;;;;;;;13.95;5.63;;;20.50;61.50;;;;;;5052334;28;20131;-51
2021/08/03 08:54:06;;;;;;;8.85;4.20;;;20.60;58.60;;;;;;5052346;28;20044;-51
2021/08/03 08:56:32;;;;;;;9.88;4.30;;;20.30;59.10;;;;;;5052346;28;20017;-47
2021/08/03 08:58:58;;;;;;;9.20;4.45;;;19.70;60.10;;;;;;5052387;28;20083;-51
2021/08/03 09:01:24;;;;;;;10.35;5.65;;;18.90;63.50;;;;;;5052243;28;20436;-49
2021/08/03 09:03:49;;;;;;;10.05;3.95;;;19.40;63.40;;;;;;5051750;28;20318;-51
2021/08/03 09:06:20;;;;;;;10.40;4.55;;;19.60;61.20;;;;;;5051999;28;20025;-50
2021/08/03 09:08:47;;;;;;;9.10;4.60;;;19.40;61.40;;;;;;5052571;28;20028;-53
2021/08/03 09:11:15;;;;;;;6.15;3.90;;;19.30;61.70;;;;;;5052362;28;20481;-48
2021/08/03 09:13:56;;;;;;;9.52;3.90;;;19.50;61.40;;;;;;5052206;28;20029;-49
2021/08/03 09:16:24;;;;;;;8.35;4.93;;;19.80;61.00;;;;;;5050737;28;20063;-49
2021/08/03 09:18:53;;;;;;;9.00;3.97;;;19.70;61.10;;;;;;5050810;28;20039;-48
2021/08/03 09:21:19;;;;;;;15.50;4.63;;;20.00;61.80;;;;;;5050327;28;20017;-48
2021/08/03 09:23:52;;;;;;;7.45;4.38;;;19.80;61.60;;;;;;5051489;28;20035;-49
2021/08/03 09:26:39;;;;;;;8.23;3.85;;;19.80;60.90;;;;;;5051511;28;20436;-48
2021/08/03 09:29:10;;;;;;;7.65;3.95;;;19.90;60.00;;;;;;5052457;28;20096;-51
2021/08/03 09:31:38;;;;;;;4.35;3.40;;;19.70;61.90;;;;;;5051709;28;20453;-50
2021/08/03 09:34:14;;;;;;;7.78;3.72;;;19.80;61.70;;;;;;5051959;28;20028;-50
2021/08/03 09:36:58;;;;;;;12.63;4.18;;;19.90;60.80;;;;;;5051890;28;20032;-51
2021/08/03 09:39:47;;;;;;;7.15;3.50;;;20.30;58.60;;;;;;5052557;28;20025;-49
2021/08/03 09:42:20;;;;;;;11.63;3.97;;;19.90;59.90;;;;;;5051076;28;20024;-49
2021/08/03 09:44:53;;;;;;;5.72;3.83;;;20.10;60.10;;;;;;5052178;28;20110;-50
2021/08/03 09:47:21;;;;;;;6.88;4.00;;;20.70;57.70;;;;;;5051729;28;20017;-48
2021/08/03 09:49:51;;;;;;;11.63;4.95;;;20.30;58.10;;;;;;5051610;28;20406;-48
2021/08/03 09:52:20;;;;;;;7.13;3.60;;;19.90;59.30;;;;;;5050972;28;20041;-49
2021/08/03 09:54:47;;;;;;;11.15;5.07;;;19.90;59.40;;;;;;5051786;28;20414;-49
2021/08/03 09:57:25;;;;;;;15.27;4.68;;;20.00;60.00;;;;;;5051197;28;20116;-50
2021/08/03 09:59:52;;;;;;;18.02;6.07;;;20.00;59.70;;;;;;5051924;28;20111;-50
2021/08/03 10:02:21;;;;;;;6.13;3.88;;;20.10;60.70;;;;;;5051912;28;20085;-48
2021/08/03 10:04:49;;;;;;;4.43;3.63;;;20.30;58.00;;;;;;5051836;28;20029;-51
2021/08/03 10:07:15;;;;;;;6.47;3.35;;;20.40;58.90;;;;;;5051707;28;20025;-48
2021/08/03 10:09:45;;;;;;;6.68;3.33;;;20.80;56.90;;;;;;5051623;28;20384;-51
2021/08/03 10:12:12;;;;;;;12.95;4.50;;;20.80;56.30;;;;;;5051518;28;20112;-48
2021/08/03 10:14:39;;;;;;;6.63;3.33;;;20.80;57.30;;;;;;5052815;28;20067;-50
2021/08/03 10:17:05;;;;;;;6.65;3.42;;;20.40;55.70;;;;;;5055152;28;20055;-50
2021/08/03 10:19:35;;;;;;;6.95;3.33;;;20.40;57.40;;;;;;5055144;28;20025;-48
2021/08/03 10:22:03;;;;;;;8.45;3.55;;;20.30;58.70;;;;;;5055241;28;20488;-48
2021/08/03 10:24:34;;;;;;;6.32;3.38;;;20.00;59.50;;;;;;5055388;28;20024;-49
2021/08/03 10:27:16;;;;;;;8.77;3.97;;;19.80;59.30;;;;;;5053546;28;20374;-47
2021/08/03 10:29:53;;;;;;;13.95;4.18;;;20.10;58.70;;;;;;5054957;28;20029;-49
2021/08/03 10:32:41;;;;;;;7.68;3.17;;;20.50;57.70;;;;;;5054596;28;20044;-52
2021/08/03 10:35:18;;;;;;;8.38;3.70;;;20.60;56.10;;;;;;5053388;28;20124;-48
2021/08/03 10:37:59;;;;;;;4.50;2.63;;;20.40;56.60;;;;;;5054748;28;20025;-48
2021/08/03 10:40:44;;;;;;;5.75;3.45;;;21.30;54.50;;;;;;5054614;28;20040;-48
2021/08/03 10:43:33;;;;;;;5.07;3.03;;;21.30;55.20;;;;;;5055330;28;20040;-48
2021/08/03 10:46:08;;;;;;;5.05;3.05;;;21.40;55.00;;;;;;5054547;28;20017;-50
2021/08/03 10:48:39;;;;;;;4.82;3.30;;;20.80;56.30;;;;;;5054731;28;20029;-52
2021/08/03 10:51:17;;;;;;;4.22;2.42;;;20.30;58.20;;;;;;5054359;28;20038;-49
2021/08/03 10:54:02;;;;;;;2.65;1.98;;;20.50;54.50;;;;;;5052860;28;20029;-50
2021/08/03 10:56:56;;;;;;;3.85;2.40;;;21.00;51.70;;;;;;5054755;28;20051;-51
2021/08/03 10:59:31;;;;;;;3.72;2.50;;;21.50;49.90;;;;;;5054271;28;20033;-51
2021/08/03 11:02:01;;;;;;;4.15;2.58;;;21.50;51.10;;;;;;5054600;28;20047;-50
2021/08/03 11:04:46;;;;;;;3.10;2.47;;;21.80;47.20;;;;;;5054671;28;20086;-52
2021/08/03 11:07:27;;;;;;;5.57;2.38;;;21.60;47.40;;;;;;5054018;28;20029;-53
2021/08/03 11:09:57;;;;;;;5.85;2.25;;;22.00;46.60;;;;;;5054225;28;20357;-53
2021/08/03 11:12:34;;;;;;;3.35;2.28;;;22.20;45.40;;;;;;5054151;28;20114;-50
2021/08/03 11:15:23;;;;;;;6.70;2.58;;;22.30;45.90;;;;;;5053789;28;20075;-52
2021/08/03 11:17:48;;;;;;;4.55;2.40;;;21.90;47.20;;;;;;5053850;28;20025;-49
2021/08/03 11:20:36;;;;;;;4.53;2.63;;;21.90;47.70;;;;;;5053642;28;20377;-49
2021/08/03 11:23:06;;;;;;;4.25;2.65;;;21.80;47.40;;;;;;5053765;28;20155;-48
2021/08/03 11:25:32;;;;;;;5.97;2.55;;;21.90;47.70;;;;;;5053741;28;20060;-48
2021/08/03 11:28:17;;;;;;;4.00;2.15;;;22.00;47.10;;;;;;5053302;28;20029;-48
2021/08/03 11:30:44;;;;;;;5.80;2.72;;;22.30;46.90;;;;;;5053436;28;20048;-52
2021/08/03 11:33:12;;;;;;;4.18;2.53;;;21.70;47.60;;;;;;5053472;28;20104;-49
2021/08/03 11:35:39;;;;;;;5.28;2.60;;;22.00;46.70;;;;;;5035770;28;20043;-49
2021/08/03 11:38:24;;;;;;;4.10;2.15;;;22.20;45.70;;;;;;5053728;28;20082;-50
2021/08/03 11:40:57;;;;;;;3.05;2.42;;;21.70;45.50;;;;;;5053753;28;20045;-48
2021/08/03 11:43:25;;;;;;;4.63;2.67;;;21.60;46.50;;;;;;5053812;28;20103;-50
2021/08/03 11:45:51;;;;;;;7.15;2.90;;;21.50;47.60;;;;;;5053352;28;20084;-50
2021/08/03 11:48:22;;;;;;;3.85;2.38;;;21.60;48.10;;;;;;5053453;28;20027;-51
2021/08/03 11:50:47;;;;;;;4.53;2.38;;;21.10;47.70;;;;;;5052318;28;20032;-51
2021/08/03 11:53:15;;;;;;;4.07;2.03;;;21.00;47.80;;;;;;5053880;28;20330;-49
2021/08/03 11:55:44;;;;;;;4.05;1.98;;;20.80;48.20;;;;;;5053626;28;20079;-50
2021/08/03 11:58:12;;;;;;;2.63;2.03;;;20.80;47.90;;;;;;5053191;28;20392;-49
2021/08/03 12:00:39;;;;;;;5.95;3.28;;;20.80;48.40;;;;;;5053054;28;20017;-50
2021/08/03 12:03:05;;;;;;;4.40;2.45;;;21.30;48.90;;;;;;5052949;28;20358;-49
2021/08/03 12:05:33;;;;;;;5.75;2.83;;;21.40;48.40;;;;;;5053190;28;20032;-49
2021/08/03 12:08:13;;;;;;;7.72;2.90;;;21.40;48.50;;;;;;5052911;28;20029;-54
2021/08/03 12:10:44;;;;;;;7.77;3.80;;;21.70;47.80;;;;;;5051743;28;20032;-50
2021/08/03 12:13:25;;;;;;;5.82;3.30;;;21.50;48.60;;;;;;5052511;28;20025;-49
2021/08/03 12:15:53;;;;;;;4.25;3.30;;;21.70;48.10;;;;;;5052899;28;20052;-50
2021/08/03 12:18:19;;;;;;;6.22;2.92;;;21.30;47.30;;;;;;5052817;28;20554;-53
2021/08/03 12:20:56;;;;;;;7.13;2.97;;;21.10;48.80;;;;;;5052788;28;20021;-50
2021/08/03 12:23:27;;;;;;;7.47;2.63;;;21.10;49.70;;;;;;5034863;28;20097;-48
2021/08/03 12:25:58;;;;;;;7.30;3.35;;;21.10;49.70;;;;;;5053051;28;20079;-51
2021/08/03 12:28:28;;;;;;;9.15;3.30;;;21.50;46.90;;;;;;5053283;28;20476;-48
2021/08/03 12:30:54;;;;;;;7.00;2.90;;;21.80;45.90;;;;;;5052847;28;20081;-47
2021/08/03 12:33:33;;;;;;;6.18;3.50;;;21.80;46.70;;;;;;5051466;28;20102;-47
2021/08/03 12:36:09;;;;;;;7.30;3.83;;;21.50;48.30;;;;;;5052894;28;20501;-49
2021/08/03 12:38:36;;;;;;;4.75;3.35;;;21.20;48.60;;;;;;5051710;28;20500;-49
2021/08/03 12:41:16;;;;;;;7.88;3.20;;;21.00;49.10;;;;;;5052592;28;20029;-48
2021/08/03 12:43:42;;;;;;;;;;;21.30;49.50;;;;;;5052964;28;20025;-48
2021/08/03 12:46:08;;;;;;;5.15;3.45;;;21.00;48.90;;;;;;5052575;28;20221;-51
2021/08/03 12:48:34;;;;;;;7.97;2.88;;;21.40;47.90;;;;;;5052374;28;20048;-48
2021/08/03 12:51:03;;;;;;;6.30;2.88;;;21.60;47.00;;;;;;5052413;28;20116;-49